Addison, Michigan
Current Conditions -  °F | °C
As of 8:34 PM on Thursday 27 Nov 2014 (Local Time) from KJYM Reporting Station
Overcast Overcast  
Wind Chill: 13°   Ceiling: 6500
Heat Index: 25°   Visibility: 10mi
Dew Point: 17°   Wind: 13mph
Humidity: 72%   Direction: 320°NW
Pressure: 30.28"   Gusts: NA
Location:  41.99°N, 84.35°W
Report Text: KJYM 280134Z AUTO 32011KT 10SM OVC065 M04/M08 A3028 RMK AO2 T10411084
Loading
Personal Weather Stations






























Interactive Weather Map New forecast layout! Learn more

10-Day Weather Forecast

Advertisements
Track Severe Weather on mobile